Motte Rimrock Reserve, California Weather observations

Data are for 10 minute period ending at time listed.
 Day   Time   Solar   Ave.   Ave.  Ave.  Vector  Max.   Baro.   Total    
  of    of     Rad.   Air    Rel.  Wind   Wind   Wind  Press.  Precip.   
Year   Day            Temp.  Hum.  Speed  Dir.   Gust                    
2021   (PST)  Kw/m2    F      %     mph   deg.    mph    mb.     in.     
-------------------------------------------------------------------------
  25   23:00   0.00   36.7    64    6.9   239    11.6   940.3    0.00 
  25   23:10   0.00   37.5    62   10.4   257    14.4   940.3    0.00 
  25   23:20   0.00   37.4    63    9.7   256    15.1   940.3    0.00 
  25   23:30   0.00   37.9    62   10.6   260    15.3   940.3    0.00 
  25   23:40   0.00   38.0    62    9.2   260    14.2   940.3    0.00 
  25   23:50   0.00   37.8    62   10.0   254    15.7   940.4    0.00 
  26    0:00   0.00   37.7    63    7.9   242    15.9   940.4    0.00 
  26    0:10   0.00   37.0    64    7.1   237    10.5   940.5    0.00 
  26    0:20   0.00   37.1    64    7.2   237     9.1   940.6    0.00 
  26    0:30   0.00   37.1    65    6.5   238     8.5   940.5    0.00 
  26    0:40   0.00   37.2    65    7.2   239    10.1   940.6    0.00 
  26    0:50   0.00   37.4    65    8.5   243    11.8   940.7    0.00 
  26    1:00   0.00   37.3    66    9.7   251    13.9   940.7    0.00 
  26    1:10   0.00   37.3    66    9.6   250    13.9   940.7    0.00 
  26    1:20   0.00   37.3    66    9.2   249    14.0   940.7    0.00 
  26    1:30   0.00   37.5    64    8.7   255    13.7   940.8    0.00 
  26    1:40   0.00   37.5    63    6.6   260    11.8   941.0    0.00 
  26    1:50   0.00   35.6    70    4.5    73     6.1   941.2    0.00 
  26    2:00   0.00   36.4    68    3.3    39     7.0   941.3    0.00 
  26    2:10   0.00   37.1    65    2.6   303     5.2   941.4    0.00 
  26    2:20   0.00   36.9    66    1.9   311     3.9   941.5    0.00 
  26    2:30   0.00   37.1    65    2.6   313     3.7   941.6    0.00 
  26    2:40   0.00   37.3    63    3.6   288     5.7   941.6    0.00 
  26    2:50   0.00   37.3    62    4.5   285     7.8   941.7    0.00 
  26    3:00   0.00   37.0    63    1.5   270     4.5   941.8    0.00 
  26    3:10   0.00   36.9    63    0.0   268     0.8   941.8    0.00 
  26    3:20   0.00   36.8    64    0.1   226     1.1   941.8    0.00 
  26    3:30   0.00   36.9    63    0.9   172     2.4   941.9    0.00 
  26    3:40   0.00   36.7    64    2.0   168     3.3   942.0    0.00 
  26    3:50   0.00   36.1    67    3.1   176     4.1   942.1    0.00 
  26    4:00   0.00   35.2    70    1.7   212     2.6   942.1    0.00 
  26    4:10   0.00   34.9    70    1.6   270     2.8   942.2    0.00 
  26    4:20   0.00   35.3    70    1.9   277     4.4   942.2    0.00 
  26    4:30   0.00   35.5    69    2.3   259     3.7   942.4    0.00 
  26    4:40   0.00   35.6    67    2.1   288     3.7   942.5    0.00 
  26    4:50   0.00   36.0    64    3.0   305     4.8   942.5    0.00 
  26    5:00   0.00   36.2    64    2.6   310     4.3   942.7    0.00 
  26    5:10   0.00   36.4    63    1.4   322     2.3   942.9    0.00 
  26    5:20   0.00   36.6    63    2.0   300     4.4   943.0    0.00 
  26    5:30   0.00   35.8    65    4.0   255     6.1   943.0    0.00 
  26    5:40   0.00   34.7    67    4.1   257     5.1   943.1    0.00 
  26    5:50   0.00   34.5    68    2.9   243     4.7   943.2    0.00 
  26    6:00   0.00   34.7    67    3.2   247     4.3   943.5    0.00 
  26    6:10   0.00   35.1    66    4.1   235     5.1   943.7    0.00 
  26    6:20   0.00   34.5    67    4.7   246     5.9   943.9    0.00 
  26    6:30   0.00   34.5    66    2.7   231     4.5   944.1    0.00 
  26    6:40   0.00   34.8    66    2.4   221     2.8   944.2    0.00 
  26    6:50   0.00   35.1    64    2.4   230     3.4   944.4    0.00 
  26    7:00   0.01   35.5    62    3.0   236     3.7   944.7    0.00 
  26    7:10   0.02   36.0    60    2.8   221     3.7   944.9    0.00 
  26    7:20   0.04   36.6    60    1.0   180     2.4   945.1    0.00 
  26    7:30   0.07   35.9    64    3.5    67     4.5   945.3    0.00 
  26    7:40   0.10   36.6    66    3.3    88     4.2   945.5    0.00 
  26    7:50   0.13   37.9    66    2.2   119     4.5   945.8    0.00 
  26    8:00   0.16   38.6    65    2.3   147     3.4   945.9    0.00 
  26    8:10   0.19   38.7    63    4.0   171     6.2   946.0    0.00 
  26    8:20   0.22   38.1    67    5.8   198     8.0   946.2    0.00 
  26    8:30   0.25   38.2    69    5.6   208     8.0   946.4    0.00 
  26    8:40   0.28   38.1    70    4.7   196     6.8   946.6    0.00 
  26    8:50   0.31   39.0    67    4.4   174     5.9   946.8    0.00 
  26    9:00   0.34   40.2    63    4.1   153     5.4   947.0    0.00 
  26    9:10   0.37   40.8    64    5.8   133     8.9   947.1    0.00 
  26    9:20   0.39   40.9    61    6.0   155     8.7   947.4    0.00 
  26    9:30   0.42   41.4    60    6.3   164     8.8   947.7    0.00 
  26    9:40   0.44   41.6    56    5.5   162     8.8   947.9    0.00 
  26    9:50   0.47   42.3    56    6.5   155     9.4   948.1    0.00 
  26   10:00   0.49   42.5    56    6.9   160    11.1   948.3    0.00 
  26   10:10   0.50   42.8    55    7.0   177    11.3   948.5    0.00 
  26   10:20   0.53   43.6    49    6.7   181    11.1   948.6    0.00 
  26   10:30   0.54   44.3    47    6.7   163    10.9   948.6    0.00 
  26   10:40   0.56   44.5    45    7.4   194    13.0   948.8    0.00 
  26   10:50   0.57   44.9    43    3.7   225     8.8   948.8    0.00 
  26   11:00   0.58   45.6    43    5.3   173    11.7   948.8    0.00 
  26   11:10   0.59   46.0    42    4.6   145     9.0   948.9    0.00 
  26   11:20   0.60   46.4    41    5.4   201     9.4   948.8    0.00 
  26   11:30   0.61   46.8    38    3.1   244     5.9   948.8    0.00 
  26   11:40   0.62   46.4    39    3.6   351     5.8   948.7    0.00 
  26   11:50   0.62   47.1    38    5.1   214     8.5   948.7    0.00 
  26   12:00   0.62   47.7    37    4.0   236     9.6   948.6    0.00 
  26   12:10   0.63   48.1    37    5.1   233    10.2   948.7    0.00 
  26   12:20   0.63   47.7    39    7.2   158    12.0   948.7    0.00 
  26   12:30   0.62   47.6    38    5.7   174     9.4   948.6    0.00 
  26   12:40   0.62   48.3    37    2.9   179    11.5   948.5    0.00 
  26   12:50   0.61   48.4    36    4.1   188     9.4   948.5    0.00 
  26   13:00   0.60   48.6    35    5.6   183    10.9   948.5    0.00 
  26   13:10   0.60   48.7    34    4.1   172     9.9   948.4    0.00 
  26   13:20   0.58   49.4    34    5.1   153    12.0   948.4    0.00 
  26   13:30   0.58   49.1    35    4.4   134     8.9   948.4    0.00 
  26   13:40   0.59   50.0    34    2.2   120     6.9   948.4    0.00 
  26   13:50   0.59   49.7    34    6.9   172    10.7   948.5    0.00 
  26   14:00   0.44   49.6    35    6.4   185    11.0   948.5    0.00 
  26   14:10   0.48   49.0    37    5.9   163    11.5   948.5    0.00 
  26   14:20   0.54   50.5    34    4.2   149     9.1   948.5    0.00 
  26   14:30   0.49   50.1    37    6.3    98    10.0   948.5    0.00 
  26   14:40   0.45   49.6    36    7.8    98    13.4   948.5    0.00 
  26   14:50   0.44   50.0    35    5.9   136     9.7   948.6    0.00 
  26   15:00   0.40   50.2    31    6.0   211    10.1   948.8    0.00 
  26   15:10   0.37   51.2    29    5.7   204     9.0   948.9    0.00 
  26   15:20   0.34   50.6    29    6.4   214    11.5   949.0    0.00 
  26   15:30   0.31   50.4    28    4.0   178     8.5   949.0    0.00 
  26   15:40   0.28   50.3    30    7.1   198    10.8   949.1    0.00 
  26   15:50   0.22   49.8    29    6.9   212    11.2   949.2    0.00 
  26   16:00   0.22   49.6    29    5.8   208    10.1   949.4    0.00 
  26   16:10   0.19   49.4    30    5.6   194     9.4   949.4    0.00 
  26   16:20   0.16   49.2    30    5.0   195     8.1   949.4    0.00 
  26   16:30   0.13   48.8    33    4.4   205     7.3   949.3    0.00 
  26   16:40   0.09   48.3    33    3.4   211     6.6   949.3    0.00 
  26   16:50   0.06   47.8    39    6.1   203    10.2   949.4    0.00 
  26   17:00   0.03   46.7    42    7.5   199    11.1   949.6    0.00 
  26   17:10   0.01   45.9    45    6.7   213    10.3   949.9    0.00 
  26   17:20   0.01   45.0    48    5.8   235     8.5   950.0    0.00 
  26   17:30   0.00   44.5    49    3.7   216     7.2   950.1    0.00 
  26   17:40   0.00   44.1    49    4.5   231     6.9   950.0    0.00 
  26   17:50   0.00   43.9    50    4.7   201     5.7   950.1    0.00 
  26   18:00   0.00   42.5    54    6.6   157     9.1   950.1    0.00 
  26   18:10   0.00   42.6    53    5.5   181     7.5   950.4    0.00 
  26   18:20   0.00   42.5    53    5.4   197     6.6   950.5    0.00 
  26   18:30   0.00   42.4    53    4.4   219     5.8   950.6    0.00 
  26   18:40   0.00   42.3    53    3.7   211     4.5   950.6    0.00 
  26   18:50   0.00   42.1    54    3.6   228     3.9   950.7    0.00 
  26   19:00   0.00   42.0    54    3.4   233     4.0   950.8    0.00 
  26   19:10   0.00   41.9    53    3.2   233     3.8   950.9    0.00 
  26   19:20   0.00   42.0    53    3.3   221     3.8   951.0    0.00 
  26   19:30   0.00   42.0    53    3.6   202     4.2   951.2    0.00 
  26   19:40   0.00   41.7    54    3.6   196     5.0   951.4    0.00 
  26   19:50   0.00   41.2    56    3.3   182     4.7   951.4    0.00 
  26   20:00   0.00   40.4    58    4.4   174     6.4   951.5    0.00 
  26   20:10   0.00   40.1    58    4.9   154     6.9   951.5    0.00 
  26   20:20   0.00   40.2    58    6.6   145     8.5   951.7    0.00 
  26   20:30   0.00   40.2    58    7.0   144     9.3   951.9    0.00 
  26   20:40   0.00   40.3    59    6.8   151     9.6   952.0    0.00 
  26   20:50   0.00   40.1    60    5.6   158     8.0   952.2    0.00 
  26   21:00   0.00   39.7    62    4.9   160     5.9   952.2    0.00 
  26   21:10   0.00   39.6    61    4.8   154     5.8   952.3    0.00 
  26   21:20   0.00   39.5    60    4.8   139     5.6   952.4    0.00 
  26   21:30   0.00   39.3    62    6.0   125     7.0   952.4    0.00 
  26   21:40   0.00   39.2    62    6.4   133     7.2   952.5    0.00 
  26   21:50   0.00   38.7    64    6.6   125     7.5   952.7    0.00 
  26   22:00   0.00   38.5    65    6.6   119     7.5   952.7    0.00 
  26   22:10   0.00   38.5    65    6.9   122     8.0   952.8    0.00 
  26   22:20   0.00   38.4    66    7.8   127     8.5   952.9    0.00 
  26   22:30   0.00   38.2    66    7.7   127     8.6   953.0    0.00 
  26   22:40   0.00   38.1    66    7.6   131     8.9   953.1    0.00 
  26   22:50   0.00   37.9    66    7.9   131     8.8   953.1    0.00 

Return to Motte Rimrock Reserve graphs page.


Western Regional Climate Center,wrcc@dri.edu